sensor_id;sensor_type;location;lat;lon;timestamp;temperature;humidity
20946;DHT22;10632;51.276;7.116;2023-03-23T00:01:10;10.00;99.90
20946;DHT22;10632;51.276;7.116;2023-03-23T00:03:38;10.00;99.90
20946;DHT22;10632;51.276;7.116;2023-03-23T00:06:06;10.00;99.90
20946;DHT22;10632;51.276;7.116;2023-03-23T00:08:35;10.00;99.90
20946;DHT22;10632;51.276;7.116;2023-03-23T00:11:04;10.00;99.90
20946;DHT22;10632;51.276;7.116;2023-03-23T00:13:32;10.00;99.90
20946;DHT22;10632;51.276;7.116;2023-03-23T00:15:59;10.00;99.90
20946;DHT22;10632;51.276;7.116;2023-03-23T00:18:26;10.10;99.90
20946;DHT22;10632;51.276;7.116;2023-03-23T00:20:54;10.10;99.90
20946;DHT22;10632;51.276;7.116;2023-03-23T00:23:24;10.10;99.90
20946;DHT22;10632;51.276;7.116;2023-03-23T00:25:53;10.10;99.90
20946;DHT22;10632;51.276;7.116;2023-03-23T00:28:23;10.20;99.90
20946;DHT22;10632;51.276;7.116;2023-03-23T00:30:56;10.10;99.90
20946;DHT22;10632;51.276;7.116;2023-03-23T00:33:24;10.20;99.90
20946;DHT22;10632;51.276;7.116;2023-03-23T00:35:52;10.20;99.90
20946;DHT22;10632;51.276;7.116;2023-03-23T00:38:23;10.20;99.90
20946;DHT22;10632;51.276;7.116;2023-03-23T00:40:50;10.20;99.90
20946;DHT22;10632;51.276;7.116;2023-03-23T00:43:18;10.20;99.90
20946;DHT22;10632;51.276;7.116;2023-03-23T00:45:46;10.30;99.90
20946;DHT22;10632;51.276;7.116;2023-03-23T00:48:19;10.30;99.90
20946;DHT22;10632;51.276;7.116;2023-03-23T00:50:46;10.30;99.90
20946;DHT22;10632;51.276;7.116;2023-03-23T00:53:13;10.30;99.90
20946;DHT22;10632;51.276;7.116;2023-03-23T00:55:41;10.40;99.90
20946;DHT22;10632;51.276;7.116;2023-03-23T00:58:08;10.40;99.90
20946;DHT22;10632;51.276;7.116;2023-03-23T01:00:35;10.50;99.90
20946;DHT22;10632;51.276;7.116;2023-03-23T01:03:03;10.40;99.90
20946;DHT22;10632;51.276;7.116;2023-03-23T01:05:35;10.50;99.90
20946;DHT22;10632;51.276;7.116;2023-03-23T01:08:03;10.50;99.90
20946;DHT22;10632;51.276;7.116;2023-03-23T01:10:30;10.50;99.90
20946;DHT22;10632;51.276;7.116;2023-03-23T01:12:59;10.50;99.90
20946;DHT22;10632;51.276;7.116;2023-03-23T01:15:27;10.50;99.90
20946;DHT22;10632;51.276;7.116;2023-03-23T01:17:55;10.60;99.90
20946;DHT22;10632;51.276;7.116;2023-03-23T01:20:22;10.60;99.90
20946;DHT22;10632;51.276;7.116;2023-03-23T01:22:51;10.60;99.90
20946;DHT22;10632;51.276;7.116;2023-03-23T01:25:18;10.60;99.90
20946;DHT22;10632;51.276;7.116;2023-03-23T01:27:45;10.60;99.90
20946;DHT22;10632;51.276;7.116;2023-03-23T01:30:13;10.50;99.90
20946;DHT22;10632;51.276;7.116;2023-03-23T01:32:40;10.50;99.90
20946;DHT22;10632;51.276;7.116;2023-03-23T01:35:07;10.50;99.90
20946;DHT22;10632;51.276;7.116;2023-03-23T01:37:35;10.50;99.90
20946;DHT22;10632;51.276;7.116;2023-03-23T01:40:04;10.50;99.90
20946;DHT22;10632;51.276;7.116;2023-03-23T01:42:34;10.50;99.90
20946;DHT22;10632;51.276;7.116;2023-03-23T01:45:27;10.50;99.90
20946;DHT22;10632;51.276;7.116;2023-03-23T01:48:15;10.50;99.90
20946;DHT22;10632;51.276;7.116;2023-03-23T01:50:47;10.40;99.90
20946;DHT22;10632;51.276;7.116;2023-03-23T01:53:17;10.40;99.90
20946;DHT22;10632;51.276;7.116;2023-03-23T01:55:49;10.40;99.90
20946;DHT22;10632;51.276;7.116;2023-03-23T01:58:21;10.40;99.90
20946;DHT22;10632;51.276;7.116;2023-03-23T02:00:51;10.40;99.90
20946;DHT22;10632;51.276;7.116;2023-03-23T02:03:19;10.40;99.90
20946;DHT22;10632;51.276;7.116;2023-03-23T02:05:49;10.30;99.90
20946;DHT22;10632;51.276;7.116;2023-03-23T02:08:17;10.30;99.90
20946;DHT22;10632;51.276;7.116;2023-03-23T02:10:44;10.30;99.90
20946;DHT22;10632;51.276;7.116;2023-03-23T02:13:13;10.20;99.90
20946;DHT22;10632;51.276;7.116;2023-03-23T02:15:47;10.20;99.90
20946;DHT22;10632;51.276;7.116;2023-03-23T02:21:40;10.10;99.90
20946;DHT22;10632;51.276;7.116;2023-03-23T02:24:50;10.20;99.90
20946;DHT22;10632;51.276;7.116;2023-03-23T02:27:37;10.10;99.90
20946;DHT22;10632;51.276;7.116;2023-03-23T02:30:39;10.00;99.90
20946;DHT22;10632;51.276;7.116;2023-03-23T02:33:40;10.00;99.90
20946;DHT22;10632;51.276;7.116;2023-03-23T02:36:14;10.00;99.90
20946;DHT22;10632;51.276;7.116;2023-03-23T02:38:47;10.00;99.90
20946;DHT22;10632;51.276;7.116;2023-03-23T02:41:21;10.00;99.90
20946;DHT22;10632;51.276;7.116;2023-03-23T02:43:49;10.00;99.90
20946;DHT22;10632;51.276;7.116;2023-03-23T02:46:17;10.00;99.90
20946;DHT22;10632;51.276;7.116;2023-03-23T02:48:49;10.00;99.90
20946;DHT22;10632;51.276;7.116;2023-03-23T02:51:18;10.00;99.90
20946;DHT22;10632;51.276;7.116;2023-03-23T02:53:48;10.00;99.90
20946;DHT22;10632;51.276;7.116;2023-03-23T02:56:18;10.00;99.90
20946;DHT22;10632;51.276;7.116;2023-03-23T02:58:45;10.00;99.90
20946;DHT22;10632;51.276;7.116;2023-03-23T03:01:50;10.00;99.90
20946;DHT22;10632;51.276;7.116;2023-03-23T03:04:22;10.00;99.90
20946;DHT22;10632;51.276;7.116;2023-03-23T03:07:03;10.00;99.90
20946;DHT22;10632;51.276;7.116;2023-03-23T03:09:41;10.00;99.90
20946;DHT22;10632;51.276;7.116;2023-03-23T03:12:13;10.00;99.90
20946;DHT22;10632;51.276;7.116;2023-03-23T03:14:45;9.90;99.90
20946;DHT22;10632;51.276;7.116;2023-03-23T03:17:19;9.90;99.90
20946;DHT22;10632;51.276;7.116;2023-03-23T03:19:51;10.00;99.90
20946;DHT22;10632;51.276;7.116;2023-03-23T03:22:21;10.00;99.90
20946;DHT22;10632;51.276;7.116;2023-03-23T03:24:55;9.90;99.90
20946;DHT22;10632;51.276;7.116;2023-03-23T03:27:24;9.90;99.90
20946;DHT22;10632;51.276;7.116;2023-03-23T03:29:55;9.90;99.90
20946;DHT22;10632;51.276;7.116;2023-03-23T03:32:28;9.90;99.90
20946;DHT22;10632;51.276;7.116;2023-03-23T03:35:02;10.00;99.90
20946;DHT22;10632;51.276;7.116;2023-03-23T03:37:34;9.90;99.90
20946;DHT22;10632;51.276;7.116;2023-03-23T03:40:07;9.90;99.90
20946;DHT22;10632;51.276;7.116;2023-03-23T03:42:37;10.00;99.90
20946;DHT22;10632;51.276;7.116;2023-03-23T03:45:06;10.00;99.90
20946;DHT22;10632;51.276;7.116;2023-03-23T03:47:34;10.00;99.90
20946;DHT22;10632;51.276;7.116;2023-03-23T03:50:02;10.00;99.90
20946;DHT22;10632;51.276;7.116;2023-03-23T03:52:29;10.00;99.90
20946;DHT22;10632;51.276;7.116;2023-03-23T03:54:57;10.00;99.90
20946;DHT22;10632;51.276;7.116;2023-03-23T03:57:24;10.00;99.90
20946;DHT22;10632;51.276;7.116;2023-03-23T03:59:51;10.00;99.90
20946;DHT22;10632;51.276;7.116;2023-03-23T04:02:19;10.00;99.90
20946;DHT22;10632;51.276;7.116;2023-03-23T04:04:46;10.10;99.90
20946;DHT22;10632;51.276;7.116;2023-03-23T04:07:15;10.00;99.90
20946;DHT22;10632;51.276;7.116;2023-03-23T04:09:43;10.00;99.90
20946;DHT22;10632;51.276;7.116;2023-03-23T04:12:12;10.00;99.90
20946;DHT22;10632;51.276;7.116;2023-03-23T04:14:38;10.10;99.90
20946;DHT22;10632;51.276;7.116;2023-03-23T04:17:05;10.10;99.90
20946;DHT22;10632;51.276;7.116;2023-03-23T04:19:34;10.10;99.90
20946;DHT22;10632;51.276;7.116;2023-03-23T04:22:02;10.10;99.90
20946;DHT22;10632;51.276;7.116;2023-03-23T04:24:34;10.10;99.90
20946;DHT22;10632;51.276;7.116;2023-03-23T04:27:01;10.00;99.90
20946;DHT22;10632;51.276;7.116;2023-03-23T04:29:31;10.00;99.90
20946;DHT22;10632;51.276;7.116;2023-03-23T04:32:00;10.00;99.90
20946;DHT22;10632;51.276;7.116;2023-03-23T04:34:27;10.00;99.90
20946;DHT22;10632;51.276;7.116;2023-03-23T04:36:59;10.10;99.90
20946;DHT22;10632;51.276;7.116;2023-03-23T04:39:25;10.00;99.90
20946;DHT22;10632;51.276;7.116;2023-03-23T04:41:55;10.00;99.90
20946;DHT22;10632;51.276;7.116;2023-03-23T04:44:27;10.10;99.90
20946;DHT22;10632;51.276;7.116;2023-03-23T04:46:57;10.10;99.90
20946;DHT22;10632;51.276;7.116;2023-03-23T04:49:29;10.10;99.90
20946;DHT22;10632;51.276;7.116;2023-03-23T04:52:05;10.10;99.90
20946;DHT22;10632;51.276;7.116;2023-03-23T04:54:33;10.10;99.90
20946;DHT22;10632;51.276;7.116;2023-03-23T04:57:04;10.10;99.90
20946;DHT22;10632;51.276;7.116;2023-03-23T04:59:31;10.10;99.90
20946;DHT22;10632;51.276;7.116;2023-03-23T05:02:01;10.10;99.90
20946;DHT22;10632;51.276;7.116;2023-03-23T05:04:29;10.10;99.90
20946;DHT22;10632;51.276;7.116;2023-03-23T05:06:56;10.10;99.90
20946;DHT22;10632;51.276;7.116;2023-03-23T05:09:22;10.10;99.90
20946;DHT22;10632;51.276;7.116;2023-03-23T05:11:57;10.10;99.90
20946;DHT22;10632;51.276;7.116;2023-03-23T05:14:40;10.10;99.90
20946;DHT22;10632;51.276;7.116;2023-03-23T05:17:10;10.10;99.90
20946;DHT22;10632;51.276;7.116;2023-03-23T05:19:38;10.10;99.90
20946;DHT22;10632;51.276;7.116;2023-03-23T05:22:10;10.10;99.90
20946;DHT22;10632;51.276;7.116;2023-03-23T05:24:38;10.10;99.90
20946;DHT22;10632;51.276;7.116;2023-03-23T05:27:05;10.10;99.90
20946;DHT22;10632;51.276;7.116;2023-03-23T05:29:35;10.20;99.90
20946;DHT22;10632;51.276;7.116;2023-03-23T05:32:02;10.20;99.90
20946;DHT22;10632;51.276;7.116;2023-03-23T05:34:30;10.20;99.90
20946;DHT22;10632;51.276;7.116;2023-03-23T05:36:58;10.30;99.90
20946;DHT22;10632;51.276;7.116;2023-03-23T05:39:26;10.30;99.90
20946;DHT22;10632;51.276;7.116;2023-03-23T05:41:54;10.30;99.90
20946;DHT22;10632;51.276;7.116;2023-03-23T05:44:21;10.30;99.90
20946;DHT22;10632;51.276;7.116;2023-03-23T05:46:49;10.30;99.90
20946;DHT22;10632;51.276;7.116;2023-03-23T05:49:17;10.40;99.90
20946;DHT22;10632;51.276;7.116;2023-03-23T05:51:44;10.40;99.90
20946;DHT22;10632;51.276;7.116;2023-03-23T05:54:13;10.40;99.90
20946;DHT22;10632;51.276;7.116;2023-03-23T05:56:40;10.50;99.90
20946;DHT22;10632;51.276;7.116;2023-03-23T05:59:07;10.40;99.90
20946;DHT22;10632;51.276;7.116;2023-03-23T06:01:36;10.40;99.90
20946;DHT22;10632;51.276;7.116;2023-03-23T06:04:05;10.40;99.90
20946;DHT22;10632;51.276;7.116;2023-03-23T06:06:34;10.40;99.90
20946;DHT22;10632;51.276;7.116;2023-03-23T06:09:02;10.40;99.90
20946;DHT22;10632;51.276;7.116;2023-03-23T06:11:29;10.40;99.90
20946;DHT22;10632;51.276;7.116;2023-03-23T06:13:56;10.40;99.90
20946;DHT22;10632;51.276;7.116;2023-03-23T06:16:23;10.40;99.90
20946;DHT22;10632;51.276;7.116;2023-03-23T06:18:50;10.40;99.90
20946;DHT22;10632;51.276;7.116;2023-03-23T06:21:20;10.40;99.90
20946;DHT22;10632;51.276;7.116;2023-03-23T06:23:47;10.40;99.90
20946;DHT22;10632;51.276;7.116;2023-03-23T06:26:18;10.40;99.90
20946;DHT22;10632;51.276;7.116;2023-03-23T06:28:45;10.40;99.90
20946;DHT22;10632;51.276;7.116;2023-03-23T06:31:13;10.40;99.90
20946;DHT22;10632;51.276;7.116;2023-03-23T06:33:40;10.40;99.90
20946;DHT22;10632;51.276;7.116;2023-03-23T06:36:08;10.40;99.90
20946;DHT22;10632;51.276;7.116;2023-03-23T06:38:39;10.40;99.90
20946;DHT22;10632;51.276;7.116;2023-03-23T06:41:06;10.50;99.90
20946;DHT22;10632;51.276;7.116;2023-03-23T06:43:32;10.50;99.90
20946;DHT22;10632;51.276;7.116;2023-03-23T06:46:05;10.50;99.90
20946;DHT22;10632;51.276;7.116;2023-03-23T06:48:32;10.50;99.90
20946;DHT22;10632;51.276;7.116;2023-03-23T06:50:59;10.50;99.90
20946;DHT22;10632;51.276;7.116;2023-03-23T06:53:26;10.50;99.90
20946;DHT22;10632;51.276;7.116;2023-03-23T06:55:54;10.50;99.90
20946;DHT22;10632;51.276;7.116;2023-03-23T06:58:21;10.50;99.90
20946;DHT22;10632;51.276;7.116;2023-03-23T07:00:53;10.50;99.90
20946;DHT22;10632;51.276;7.116;2023-03-23T07:03:28;10.60;99.90
20946;DHT22;10632;51.276;7.116;2023-03-23T07:05:56;10.60;99.90
20946;DHT22;10632;51.276;7.116;2023-03-23T07:08:24;10.60;99.90
20946;DHT22;10632;51.276;7.116;2023-03-23T07:10:51;10.60;99.90
20946;DHT22;10632;51.276;7.116;2023-03-23T07:13:20;10.60;99.90
20946;DHT22;10632;51.276;7.116;2023-03-23T07:15:47;10.60;99.90
20946;DHT22;10632;51.276;7.116;2023-03-23T07:18:16;10.70;99.90
20946;DHT22;10632;51.276;7.116;2023-03-23T07:20:43;10.70;99.90
20946;DHT22;10632;51.276;7.116;2023-03-23T07:23:09;10.70;99.90
20946;DHT22;10632;51.276;7.116;2023-03-23T07:25:39;10.80;99.90
20946;DHT22;10632;51.276;7.116;2023-03-23T07:28:06;10.80;99.90
20946;DHT22;10632;51.276;7.116;2023-03-23T07:30:34;10.80;99.90
20946;DHT22;10632;51.276;7.116;2023-03-23T07:33:04;10.80;99.90
20946;DHT22;10632;51.276;7.116;2023-03-23T07:35:31;10.80;99.90
20946;DHT22;10632;51.276;7.116;2023-03-23T07:37:58;10.90;99.90
20946;DHT22;10632;51.276;7.116;2023-03-23T07:40:25;10.90;99.90
20946;DHT22;10632;51.276;7.116;2023-03-23T07:42:54;10.90;99.90
20946;DHT22;10632;51.276;7.116;2023-03-23T07:45:22;10.90;99.90
20946;DHT22;10632;51.276;7.116;2023-03-23T07:47:50;10.90;99.90
20946;DHT22;10632;51.276;7.116;2023-03-23T07:50:19;10.90;99.90
20946;DHT22;10632;51.276;7.116;2023-03-23T07:52:50;11.00;99.90
20946;DHT22;10632;51.276;7.116;2023-03-23T07:55:17;11.00;99.90
20946;DHT22;10632;51.276;7.116;2023-03-23T07:57:44;11.00;99.90
20946;DHT22;10632;51.276;7.116;2023-03-23T08:00:12;11.00;99.90
20946;DHT22;10632;51.276;7.116;2023-03-23T08:02:45;11.00;99.90
20946;DHT22;10632;51.276;7.116;2023-03-23T08:05:13;11.00;99.90
20946;DHT22;10632;51.276;7.116;2023-03-23T08:07:40;11.00;99.90
20946;DHT22;10632;51.276;7.116;2023-03-23T08:10:09;11.00;99.90
20946;DHT22;10632;51.276;7.116;2023-03-23T08:12:37;11.00;99.90
20946;DHT22;10632;51.276;7.116;2023-03-23T08:15:05;11.00;99.90
20946;DHT22;10632;51.276;7.116;2023-03-23T08:17:32;11.00;99.90
20946;DHT22;10632;51.276;7.116;2023-03-23T08:20:00;11.00;99.90
20946;DHT22;10632;51.276;7.116;2023-03-23T08:22:35;11.00;99.90
20946;DHT22;10632;51.276;7.116;2023-03-23T08:25:02;11.00;99.90
20946;DHT22;10632;51.276;7.116;2023-03-23T08:27:29;11.00;99.90
20946;DHT22;10632;51.276;7.116;2023-03-23T08:29:56;11.00;99.90
20946;DHT22;10632;51.276;7.116;2023-03-23T08:32:23;11.10;99.90
20946;DHT22;10632;51.276;7.116;2023-03-23T08:34:53;11.10;99.90
20946;DHT22;10632;51.276;7.116;2023-03-23T08:37:19;11.10;99.90
20946;DHT22;10632;51.276;7.116;2023-03-23T08:39:50;11.10;99.90
20946;DHT22;10632;51.276;7.116;2023-03-23T08:42:20;11.10;99.90
20946;DHT22;10632;51.276;7.116;2023-03-23T08:44:47;11.10;99.90
20946;DHT22;10632;51.276;7.116;2023-03-23T08:47:14;11.10;99.90
20946;DHT22;10632;51.276;7.116;2023-03-23T08:49:42;11.20;99.90
20946;DHT22;10632;51.276;7.116;2023-03-23T08:52:09;11.20;99.90
20946;DHT22;10632;51.276;7.116;2023-03-23T08:54:35;11.20;99.90
20946;DHT22;10632;51.276;7.116;2023-03-23T08:57:06;11.20;99.90
20946;DHT22;10632;51.276;7.116;2023-03-23T08:59:33;11.20;99.90
20946;DHT22;10632;51.276;7.116;2023-03-23T09:02:03;11.30;99.90
20946;DHT22;10632;51.276;7.116;2023-03-23T09:04:29;11.30;99.90
20946;DHT22;10632;51.276;7.116;2023-03-23T09:06:59;11.30;99.90
20946;DHT22;10632;51.276;7.116;2023-03-23T09:09:29;11.30;99.90
20946;DHT22;10632;51.276;7.116;2023-03-23T09:11:59;11.30;99.90
20946;DHT22;10632;51.276;7.116;2023-03-23T09:14:28;11.40;99.90
20946;DHT22;10632;51.276;7.116;2023-03-23T09:16:54;11.40;99.90
20946;DHT22;10632;51.276;7.116;2023-03-23T09:19:22;11.50;99.90
20946;DHT22;10632;51.276;7.116;2023-03-23T09:21:49;11.50;99.90
20946;DHT22;10632;51.276;7.116;2023-03-23T09:24:16;11.60;99.90
20946;DHT22;10632;51.276;7.116;2023-03-23T09:26:44;11.60;99.90
20946;DHT22;10632;51.276;7.116;2023-03-23T09:29:12;11.60;99.90
20946;DHT22;10632;51.276;7.116;2023-03-23T09:31:43;11.60;99.90
20946;DHT22;10632;51.276;7.116;2023-03-23T09:34:12;11.60;99.90
20946;DHT22;10632;51.276;7.116;2023-03-23T09:36:39;11.60;99.90
20946;DHT22;10632;51.276;7.116;2023-03-23T09:39:06;11.60;99.90
20946;DHT22;10632;51.276;7.116;2023-03-23T09:42:03;11.60;99.90
20946;DHT22;10632;51.276;7.116;2023-03-23T09:44:39;11.60;99.90
20946;DHT22;10632;51.276;7.116;2023-03-23T09:47:17;11.70;99.90
20946;DHT22;10632;51.276;7.116;2023-03-23T09:49:52;11.70;99.90
20946;DHT22;10632;51.276;7.116;2023-03-23T09:52:20;11.70;99.90
20946;DHT22;10632;51.276;7.116;2023-03-23T09:54:49;11.70;99.90
20946;DHT22;10632;51.276;7.116;2023-03-23T09:57:22;11.70;99.90
20946;DHT22;10632;51.276;7.116;2023-03-23T09:59:55;11.80;99.90
20946;DHT22;10632;51.276;7.116;2023-03-23T10:02:32;11.80;99.90
20946;DHT22;10632;51.276;7.116;2023-03-23T10:05:16;11.80;99.90
20946;DHT22;10632;51.276;7.116;2023-03-23T10:07:45;11.80;99.90
20946;DHT22;10632;51.276;7.116;2023-03-23T10:10:13;11.70;99.90
20946;DHT22;10632;51.276;7.116;2023-03-23T10:12:44;11.70;99.90
20946;DHT22;10632;51.276;7.116;2023-03-23T10:15:15;11.70;99.90
20946;DHT22;10632;51.276;7.116;2023-03-23T10:17:52;11.80;99.90
20946;DHT22;10632;51.276;7.116;2023-03-23T10:20:30;11.70;99.90
20946;DHT22;10632;51.276;7.116;2023-03-23T10:23:05;11.70;99.90
20946;DHT22;10632;51.276;7.116;2023-03-23T10:25:37;11.70;99.90
20946;DHT22;10632;51.276;7.116;2023-03-23T10:28:11;11.70;99.90
20946;DHT22;10632;51.276;7.116;2023-03-23T10:30:40;11.70;99.90
20946;DHT22;10632;51.276;7.116;2023-03-23T10:33:16;11.40;99.90
20946;DHT22;10632;51.276;7.116;2023-03-23T10:35:48;11.00;99.90
20946;DHT22;10632;51.276;7.116;2023-03-23T10:38:21;10.60;99.90
20946;DHT22;10632;51.276;7.116;2023-03-23T10:40:53;10.20;99.90
20946;DHT22;10632;51.276;7.116;2023-03-23T10:43:23;9.90;99.90
20946;DHT22;10632;51.276;7.116;2023-03-23T10:45:55;9.70;99.90
20946;DHT22;10632;51.276;7.116;2023-03-23T10:48:27;9.50;99.90
20946;DHT22;10632;51.276;7.116;2023-03-23T10:51:02;9.40;99.90
20946;DHT22;10632;51.276;7.116;2023-03-23T10:53:32;9.20;99.90
20946;DHT22;10632;51.276;7.116;2023-03-23T10:56:04;9.10;99.90
20946;DHT22;10632;51.276;7.116;2023-03-23T10:58:34;9.00;99.90
20946;DHT22;10632;51.276;7.116;2023-03-23T11:01:03;9.00;99.90
20946;DHT22;10632;51.276;7.116;2023-03-23T11:03:40;8.90;99.90
20946;DHT22;10632;51.276;7.116;2023-03-23T11:06:09;8.80;99.90
20946;DHT22;10632;51.276;7.116;2023-03-23T11:08:48;8.70;99.90
20946;DHT22;10632;51.276;7.116;2023-03-23T11:11:16;8.70;99.90
20946;DHT22;10632;51.276;7.116;2023-03-23T11:13:45;8.70;99.90
20946;DHT22;10632;51.276;7.116;2023-03-23T11:16:22;8.60;99.90
20946;DHT22;10632;51.276;7.116;2023-03-23T11:18:51;8.60;99.90
20946;DHT22;10632;51.276;7.116;2023-03-23T11:21:20;8.60;99.90
20946;DHT22;10632;51.276;7.116;2023-03-23T11:23:50;8.60;99.90
20946;DHT22;10632;51.276;7.116;2023-03-23T11:26:20;8.60;99.90
20946;DHT22;10632;51.276;7.116;2023-03-23T11:28:54;8.60;99.90
20946;DHT22;10632;51.276;7.116;2023-03-23T11:31:23;8.60;99.90
20946;DHT22;10632;51.276;7.116;2023-03-23T11:33:54;8.50;99.90
20946;DHT22;10632;51.276;7.116;2023-03-23T11:36:29;8.50;99.90
20946;DHT22;10632;51.276;7.116;2023-03-23T11:38:57;8.50;99.90
20946;DHT22;10632;51.276;7.116;2023-03-23T11:41:30;8.50;99.90
20946;DHT22;10632;51.276;7.116;2023-03-23T11:44:04;8.50;99.90
20946;DHT22;10632;51.276;7.116;2023-03-23T11:46:39;8.50;99.90
20946;DHT22;10632;51.276;7.116;2023-03-23T11:49:15;8.50;99.90
20946;DHT22;10632;51.276;7.116;2023-03-23T11:51:48;8.50;99.90
20946;DHT22;10632;51.276;7.116;2023-03-23T11:54:21;8.50;99.90
20946;DHT22;10632;51.276;7.116;2023-03-23T11:56:48;8.50;99.90
20946;DHT22;10632;51.276;7.116;2023-03-23T11:59:18;8.40;99.90
20946;DHT22;10632;51.276;7.116;2023-03-23T12:01:51;8.40;99.90
20946;DHT22;10632;51.276;7.116;2023-03-23T12:04:40;8.50;99.90
20946;DHT22;10632;51.276;7.116;2023-03-23T12:07:23;8.50;99.90
20946;DHT22;10632;51.276;7.116;2023-03-23T12:10:01;8.50;99.90
20946;DHT22;10632;51.276;7.116;2023-03-23T12:12:35;8.60;99.90
20946;DHT22;10632;51.276;7.116;2023-03-23T12:15:10;8.70;99.90
20946;DHT22;10632;51.276;7.116;2023-03-23T12:17:49;8.70;99.90
20946;DHT22;10632;51.276;7.116;2023-03-23T12:20:32;8.80;99.90
20946;DHT22;10632;51.276;7.116;2023-03-23T12:23:13;8.90;99.90
20946;DHT22;10632;51.276;7.116;2023-03-23T12:26:07;8.90;99.90
20946;DHT22;10632;51.276;7.116;2023-03-23T12:28:52;9.00;99.90
20946;DHT22;10632;51.276;7.116;2023-03-23T12:31:28;9.10;99.90
20946;DHT22;10632;51.276;7.116;2023-03-23T12:34:04;9.10;99.90
20946;DHT22;10632;51.276;7.116;2023-03-23T12:36:50;9.20;99.90
20946;DHT22;10632;51.276;7.116;2023-03-23T12:39:49;9.30;99.90
20946;DHT22;10632;51.276;7.116;2023-03-23T12:42:24;9.30;99.90
20946;DHT22;10632;51.276;7.116;2023-03-23T12:44:55;9.40;99.90
20946;DHT22;10632;51.276;7.116;2023-03-23T12:47:34;9.40;99.90
20946;DHT22;10632;51.276;7.116;2023-03-23T12:50:07;9.50;99.90
20946;DHT22;10632;51.276;7.116;2023-03-23T12:52:46;9.50;99.90
20946;DHT22;10632;51.276;7.116;2023-03-23T12:55:23;9.50;99.90
20946;DHT22;10632;51.276;7.116;2023-03-23T12:57:57;9.60;99.90
20946;DHT22;10632;51.276;7.116;2023-03-23T13:00:29;9.60;99.90
20946;DHT22;10632;51.276;7.116;2023-03-23T13:03:00;9.60;99.90
20946;DHT22;10632;51.276;7.116;2023-03-23T13:05:35;9.70;99.90
20946;DHT22;10632;51.276;7.116;2023-03-23T13:08:11;9.60;99.90
20946;DHT22;10632;51.276;7.116;2023-03-23T13:10:44;9.70;99.90
20946;DHT22;10632;51.276;7.116;2023-03-23T13:13:14;9.70;99.90
20946;DHT22;10632;51.276;7.116;2023-03-23T13:15:51;9.80;99.90
20946;DHT22;10632;51.276;7.116;2023-03-23T13:18:29;9.90;99.90
20946;DHT22;10632;51.276;7.116;2023-03-23T13:21:08;9.90;99.90
20946;DHT22;10632;51.276;7.116;2023-03-23T13:23:41;9.90;99.90
20946;DHT22;10632;51.276;7.116;2023-03-23T13:26:11;9.90;99.90
20946;DHT22;10632;51.276;7.116;2023-03-23T13:28:49;10.00;99.90
20946;DHT22;10632;51.276;7.116;2023-03-23T13:31:20;10.00;99.90
20946;DHT22;10632;51.276;7.116;2023-03-23T13:33:51;10.00;99.90
20946;DHT22;10632;51.276;7.116;2023-03-23T13:36:30;10.10;99.90
20946;DHT22;10632;51.276;7.116;2023-03-23T13:39:03;10.10;99.90
20946;DHT22;10632;51.276;7.116;2023-03-23T13:41:33;10.10;99.90
20946;DHT22;10632;51.276;7.116;2023-03-23T13:44:19;10.10;99.90
20946;DHT22;10632;51.276;7.116;2023-03-23T13:46:57;10.10;99.90
20946;DHT22;10632;51.276;7.116;2023-03-23T13:49:27;10.20;99.90
20946;DHT22;10632;51.276;7.116;2023-03-23T13:52:22;10.20;99.90
20946;DHT22;10632;51.276;7.116;2023-03-23T13:54:52;10.20;99.90
20946;DHT22;10632;51.276;7.116;2023-03-23T13:57:48;10.20;99.90
20946;DHT22;10632;51.276;7.116;2023-03-23T14:00:35;10.20;99.90
20946;DHT22;10632;51.276;7.116;2023-03-23T14:03:05;10.30;99.90
20946;DHT22;10632;51.276;7.116;2023-03-23T14:05:35;10.30;99.90
20946;DHT22;10632;51.276;7.116;2023-03-23T14:08:11;10.30;99.90
20946;DHT22;10632;51.276;7.116;2023-03-23T14:10:42;10.30;99.90
20946;DHT22;10632;51.276;7.116;2023-03-23T14:13:15;10.30;99.90
20946;DHT22;10632;51.276;7.116;2023-03-23T14:15:44;10.30;99.90
20946;DHT22;10632;51.276;7.116;2023-03-23T14:18:15;10.40;99.90
20946;DHT22;10632;51.276;7.116;2023-03-23T14:20:45;10.40;99.90
20946;DHT22;10632;51.276;7.116;2023-03-23T14:23:16;10.50;99.90
20946;DHT22;10632;51.276;7.116;2023-03-23T14:25:45;10.50;99.90
20946;DHT22;10632;51.276;7.116;2023-03-23T14:28:21;10.50;99.90
20946;DHT22;10632;51.276;7.116;2023-03-23T14:30:52;10.60;99.90
20946;DHT22;10632;51.276;7.116;2023-03-23T14:33:22;10.60;99.90
20946;DHT22;10632;51.276;7.116;2023-03-23T14:35:49;10.60;99.90
20946;DHT22;10632;51.276;7.116;2023-03-23T14:38:19;10.60;99.90
20946;DHT22;10632;51.276;7.116;2023-03-23T14:40:50;10.70;99.90
20946;DHT22;10632;51.276;7.116;2023-03-23T14:43:19;10.70;99.90
20946;DHT22;10632;51.276;7.116;2023-03-23T14:45:51;10.80;99.90
20946;DHT22;10632;51.276;7.116;2023-03-23T14:48:19;10.80;99.90
20946;DHT22;10632;51.276;7.116;2023-03-23T14:50:50;10.80;99.90
20946;DHT22;10632;51.276;7.116;2023-03-23T14:53:19;10.80;99.90
20946;DHT22;10632;51.276;7.116;2023-03-23T14:55:50;10.80;99.90
20946;DHT22;10632;51.276;7.116;2023-03-23T14:58:20;10.90;99.90
20946;DHT22;10632;51.276;7.116;2023-03-23T15:00:53;10.90;99.90
20946;DHT22;10632;51.276;7.116;2023-03-23T15:03:22;10.90;99.90
20946;DHT22;10632;51.276;7.116;2023-03-23T15:05:51;10.90;99.90
20946;DHT22;10632;51.276;7.116;2023-03-23T15:08:23;11.00;99.90
20946;DHT22;10632;51.276;7.116;2023-03-23T15:11:03;11.00;99.90
20946;DHT22;10632;51.276;7.116;2023-03-23T15:13:31;11.00;99.90
20946;DHT22;10632;51.276;7.116;2023-03-23T15:16:03;11.00;99.90
20946;DHT22;10632;51.276;7.116;2023-03-23T15:18:34;11.00;99.90
20946;DHT22;10632;51.276;7.116;2023-03-23T15:21:09;11.00;99.90
20946;DHT22;10632;51.276;7.116;2023-03-23T15:23:43;10.90;99.90
20946;DHT22;10632;51.276;7.116;2023-03-23T15:26:32;10.90;99.90
20946;DHT22;10632;51.276;7.116;2023-03-23T15:29:14;10.90;99.90
20946;DHT22;10632;51.276;7.116;2023-03-23T15:31:43;10.90;99.90
20946;DHT22;10632;51.276;7.116;2023-03-23T15:34:24;10.90;99.90
20946;DHT22;10632;51.276;7.116;2023-03-23T15:36:56;10.90;99.90
20946;DHT22;10632;51.276;7.116;2023-03-23T15:39:23;10.90;99.90
20946;DHT22;10632;51.276;7.116;2023-03-23T15:41:53;11.00;99.90
20946;DHT22;10632;51.276;7.116;2023-03-23T15:44:24;11.10;99.90
20946;DHT22;10632;51.276;7.116;2023-03-23T15:46:53;11.10;99.90
20946;DHT22;10632;51.276;7.116;2023-03-23T15:49:23;11.20;99.90
20946;DHT22;10632;51.276;7.116;2023-03-23T15:51:50;11.20;99.90
20946;DHT22;10632;51.276;7.116;2023-03-23T15:54:17;11.30;99.90
20946;DHT22;10632;51.276;7.116;2023-03-23T15:56:44;11.30;99.90
20946;DHT22;10632;51.276;7.116;2023-03-23T15:59:15;11.30;99.90
20946;DHT22;10632;51.276;7.116;2023-03-23T16:01:42;11.40;99.90